Detroit Metropolitan Wayne County Airport
KDTW : now visible

Airfield :











YOU CAN JOIN US ON...

 
LOGIN :

Register | Disclaimer

   EN    FR    IT 

 









Legend :    VFR   Marginal VFR   IFR   Intensive IFR   Very Intensive IFR
Visi :
Ceiling :
>= 8 km
>= 3000ft
5 to 8 km
1000 to 3000 ft
1500m to 5 km
500 to 1000 ft
800 to 1500m
200 to 500 ft
< 800m
< 200 ft
Symbols :   Thunderstorms  Fog  Heavy snow  Heavy precipitations  Wind > 20 kt






- Airport Elevation : 645 ft
- IATA code : DTW


KDTW - Detroit Metropolitan Wayne County

CURRENT METAR :
  • 281553Z 20008KT 10SM SCT015 BKN025 OVC080 23/18 A2993 RMK AO2 SLP133 T02280178

EXPIRED METARs :
  • 281453Z 18007KT 10SM BKN015 BKN080 OVC230 22/18 A2995 RMK AO2 SLP138 60000 T02220178 58004
  • 281353Z 18010KT 10SM FEW030 SCT080 OVC230 21/17 A2996 RMK AO2 RAE31 SLP141 P0000 T02060172

TAF KDTW
Valid from the 28 at 15:00 until the 29 at 18:00 UTC


281503Z 2815/2918 18009KT P6SM FEW020 BKN080 OVC200
FM281800 18009KT P6SM BKN045 BKN150
TEMPO 2822/2902 2SM TSRA BKN025 OVC040CB
FM290200 20006KT P6SM SCT040 SCT080 BKN150
FM291200 24008KT 4SM -SHRA BR BKN018 OVC040
FM291500 30008KT 6SM SHRA BR SCT012 OVC022
KZOB FIR / North America



MET'MAP, your aeronautical weather chart ! - Copyright ORBIFLY December 2007 - Disclaimer

ORBIFLY MET'MAP TEAM :

Programming & Development : Alexandra Zaïnal
Concept & original design : Baudouin d'Aumeries
Assistance for programming : Marc-Olivier Méhu
Technical & hardware support : Manuel Goepfert

Contact : metmap@orbifly.com




SOURCES & CREDITS :

   NOAA       Earth
Advisory